Time;durP1;ratioP1;P1;durP2;ratioP2;P2;SDS_P1;SDS_P2;PMS_P1;PMS_P2;Temp;Humidity;BMP_temperature;BMP_pressure;BME280_temperature;BME280_humidity;BME280_pressure;Samples;Min_cycle;Max_cycle;Signal;HPM_P1;HPM_P2
2023/03/30 00:01:29;;;;;;;14.23;9.63;;;11.40;99.90;;;;;;5077023;28;20381;-82
2023/03/30 00:03:57;;;;;;;15.67;8.67;;;11.40;99.90;;;;;;5093769;28;20051;-82
2023/03/30 00:06:23;;;;;;;14.53;9.00;;;11.50;99.90;;;;;;5076202;28;20050;-82
2023/03/30 00:08:57;;;;;;;11.50;8.43;;;11.50;99.90;;;;;;5093707;28;20286;-82
2023/03/30 00:11:24;;;;;;;15.27;8.43;;;11.50;99.90;;;;;;5094089;28;20055;-83
2023/03/30 00:13:50;;;;;;;14.43;9.00;;;11.50;99.90;;;;;;5093452;28;20341;-82
2023/03/30 00:16:16;;;;;;;14.37;8.43;;;11.60;99.90;;;;;;5093876;28;20291;-83
2023/03/30 00:18:43;;;;;;;14.43;8.90;;;11.60;99.90;;;;;;5093106;28;20294;-83
2023/03/30 00:21:10;;;;;;;16.40;8.67;;;11.60;99.90;;;;;;5077072;28;20377;-83
2023/03/30 00:23:37;;;;;;;16.80;9.20;;;11.60;99.90;;;;;;5076567;28;20289;-83
2023/03/30 00:26:03;;;;;;;14.97;8.77;;;11.60;99.90;;;;;;5093654;28;20290;-82
2023/03/30 00:28:30;;;;;;;11.23;8.20;;;11.60;99.90;;;;;;5093290;28;20286;-82
2023/03/30 00:30:56;;;;;;;14.50;8.43;;;11.60;99.90;;;;;;5076973;28;20372;-83
2023/03/30 00:33:22;;;;;;;11.80;7.57;;;11.60;99.90;;;;;;5093370;28;20420;-82
2023/03/30 00:35:52;;;;;;;16.20;8.43;;;11.60;99.90;;;;;;5076272;28;20686;-82
2023/03/30 00:38:20;;;;;;;15.17;9.00;;;11.60;99.90;;;;;;5093381;28;20044;-83
2023/03/30 00:40:57;;;;;;;14.07;8.77;;;11.60;99.90;;;;;;5076364;28;20375;-82
2023/03/30 00:43:24;;;;;;;11.60;7.80;;;11.60;99.90;;;;;;5093260;28;20298;-82
2023/03/30 00:45:50;;;;;;;14.67;8.30;;;11.60;99.90;;;;;;5092993;28;20278;-82
2023/03/30 00:48:31;;;;;;;13.97;7.57;;;11.60;99.90;;;;;;5093247;28;20322;-83
2023/03/30 00:51:09;;;;;;;11.10;8.40;;;11.50;99.90;;;;;;5094143;28;20275;-82
2023/03/30 00:53:42;;;;;;;13.23;7.93;;;11.50;99.90;;;;;;5092566;28;20342;-82
2023/03/30 00:56:10;;;;;;;13.60;8.83;;;11.50;99.90;;;;;;5093214;28;20293;-82
2023/03/30 00:58:37;;;;;;;13.20;7.77;;;11.50;99.90;;;;;;5092772;28;20290;-83
2023/03/30 01:01:06;;;;;;;15.33;8.20;;;11.50;99.90;;;;;;5093328;28;20859;-82
2023/03/30 01:03:44;;;;;;;14.53;7.30;;;11.50;99.90;;;;;;5092847;28;20294;-82
2023/03/30 01:06:11;;;;;;;13.33;8.30;;;11.50;99.90;;;;;;5092992;28;20827;-82
2023/03/30 01:08:38;;;;;;;13.40;7.83;;;11.50;99.90;;;;;;5092698;28;20286;-82
2023/03/30 01:11:05;;;;;;;14.17;7.47;;;11.50;99.90;;;;;;5092796;28;20289;-82
2023/03/30 01:13:48;;;;;;;11.73;8.10;;;11.50;99.90;;;;;;5092706;28;20310;-82
2023/03/30 01:16:26;;;;;;;14.40;7.13;;;11.50;99.90;;;;;;5093049;28;20371;-82
2023/03/30 01:19:30;;;;;;;16.03;8.17;;;11.50;99.90;;;;;;5091595;28;20298;-81
2023/03/30 01:22:13;;;;;;;14.17;8.30;;;11.50;99.90;;;;;;4994967;28;20736;-83
2023/03/30 01:24:52;;;;;;;15.93;7.93;;;11.50;99.90;;;;;;5085671;28;20352;-82
2023/03/30 01:27:18;;;;;;;13.83;6.90;;;11.50;99.90;;;;;;5092819;28;20321;-83
2023/03/30 01:30:14;;;;;;;9.90;7.53;;;11.50;99.90;;;;;;5093247;28;20769;-83
2023/03/30 01:32:55;;;;;;;;;;;11.50;99.90;;;;;;5092553;28;20470;-83
2023/03/30 01:35:47;;;;;;;11.70;7.30;;;11.50;99.90;;;;;;5109762;28;19920;-82
2023/03/30 01:38:15;;;;;;;13.87;6.83;;;11.50;99.90;;;;;;5087731;28;20305;-82
2023/03/30 01:40:50;;;;;;;13.83;6.53;;;11.50;99.90;;;;;;5092143;28;20286;-82
2023/03/30 01:44:00;;;;;;;12.88;6.30;;;11.40;99.90;;;;;;5092722;28;20313;-82
2023/03/30 01:46:39;;;;;;;10.83;5.80;;;11.50;99.90;;;;;;5049763;28;20051;-81
2023/03/30 01:49:30;;;;;;;13.70;6.40;;;11.40;99.90;;;;;;5093332;28;20286;-81
2023/03/30 01:52:09;;;;;;;9.77;5.60;;;11.50;99.90;;;;;;5092070;28;20329;-82
2023/03/30 01:54:45;;;;;;;11.07;5.33;;;11.50;99.90;;;;;;5093206;28;20363;-82
2023/03/30 01:57:16;;;;;;;10.83;5.50;;;11.50;99.90;;;;;;5092300;28;20971;-82
2023/03/30 01:59:55;;;;;;;14.83;5.43;;;11.50;99.90;;;;;;5091799;28;20782;-82
2023/03/30 02:02:23;;;;;;;10.63;5.60;;;11.60;99.90;;;;;;5092314;28;20294;-82
2023/03/30 02:04:52;;;;;;;13.87;5.23;;;11.60;99.90;;;;;;5091923;28;20290;-82
2023/03/30 02:07:22;;;;;;;12.03;4.70;;;11.60;99.90;;;;;;5093118;28;20704;-82
2023/03/30 02:09:51;;;;;;;9.53;4.47;;;11.60;99.90;;;;;;5091542;28;20286;-81
2023/03/30 02:12:19;;;;;;;8.27;4.70;;;11.60;99.90;;;;;;5075271;28;20343;-81
2023/03/30 02:14:47;;;;;;;11.37;4.27;;;11.50;99.90;;;;;;5091721;28;20348;-81
2023/03/30 02:17:23;;;;;;;13.47;4.40;;;11.50;99.90;;;;;;5091505;28;20305;-81
2023/03/30 02:19:50;;;;;;;11.10;5.23;;;11.50;99.90;;;;;;5091814;28;20293;-81
2023/03/30 02:22:17;;;;;;;11.43;5.00;;;11.50;99.90;;;;;;5075092;28;20834;-81
2023/03/30 02:24:47;;;;;;;10.23;4.43;;;11.40;99.90;;;;;;5074820;28;20637;-81
2023/03/30 02:27:13;;;;;;;8.50;4.33;;;11.40;99.90;;;;;;5092748;28;20278;-82
2023/03/30 02:29:42;;;;;;;13.70;4.83;;;11.40;99.90;;;;;;5093559;28;20311;-82
2023/03/30 02:32:19;;;;;;;11.67;4.20;;;11.40;99.90;;;;;;5097152;28;20055;-82
2023/03/30 02:35:08;;;;;;;9.17;4.27;;;11.40;99.90;;;;;;5095452;28;20662;-82
2023/03/30 02:37:52;;;;;;;12.17;3.93;;;11.40;99.90;;;;;;5095815;28;20301;-82
2023/03/30 02:40:21;;;;;;;10.63;4.40;;;11.40;99.90;;;;;;5095996;28;20352;-81
2023/03/30 02:43:11;;;;;;;11.70;4.10;;;11.40;99.90;;;;;;5096376;28;20324;-82
2023/03/30 02:46:07;;;;;;;8.50;3.87;;;11.50;99.90;;;;;;5095913;28;20626;-81
2023/03/30 02:48:40;;;;;;;7.67;3.80;;;11.50;99.90;;;;;;5095678;28;20286;-82
2023/03/30 02:51:20;;;;;;;9.93;3.57;;;11.50;99.90;;;;;;5094866;28;20309;-82
2023/03/30 02:54:00;;;;;;;13.20;4.13;;;11.60;99.90;;;;;;5095076;28;20428;-81
2023/03/30 02:57:05;;;;;;;11.93;4.07;;;11.60;99.90;;;;;;5095451;28;20294;-81
2023/03/30 02:59:44;;;;;;;14.37;4.83;;;11.70;99.90;;;;;;5095372;28;20352;-80
2023/03/30 03:02:19;;;;;;;8.17;3.73;;;11.70;99.90;;;;;;5095097;28;20286;-81
2023/03/30 03:04:48;;;;;;;11.02;4.00;;;11.70;99.90;;;;;;5095456;28;20638;-81
2023/03/30 03:07:14;;;;;;;9.83;3.70;;;11.70;99.90;;;;;;5078426;28;20392;-81
2023/03/30 03:09:40;;;;;;;8.97;3.50;;;11.60;99.90;;;;;;5096170;28;20296;-81
2023/03/30 03:12:06;;;;;;;11.10;3.77;;;11.60;99.90;;;;;;5094846;28;20091;-81
2023/03/30 03:14:32;;;;;;;9.07;3.53;;;11.50;99.90;;;;;;5078027;28;20047;-81
2023/03/30 03:16:58;;;;;;;10.50;4.40;;;11.50;99.90;;;;;;5094736;28;20290;-82
2023/03/30 03:19:24;;;;;;;11.33;4.10;;;11.50;99.90;;;;;;5044411;28;20497;-81
2023/03/30 03:21:50;;;;;;;12.77;4.23;;;11.40;99.90;;;;;;5094103;28;20174;-82
2023/03/30 03:24:19;;;;;;;12.27;3.80;;;11.50;99.90;;;;;;5078059;28;20396;-82
2023/03/30 03:26:45;;;;;;;12.40;4.07;;;11.40;99.90;;;;;;5094874;28;20762;-82
2023/03/30 03:29:11;;;;;;;9.17;3.87;;;11.50;99.90;;;;;;5094267;28;20289;-82
2023/03/30 03:31:36;;;;;;;11.53;4.37;;;11.50;99.90;;;;;;5094700;28;20051;-82
2023/03/30 03:34:02;;;;;;;10.97;4.17;;;11.50;99.90;;;;;;5077221;28;20044;-82
2023/03/30 03:36:29;;;;;;;13.90;5.03;;;11.50;99.90;;;;;;5094666;28;20043;-82
2023/03/30 03:38:55;;;;;;;12.43;4.83;;;11.50;99.90;;;;;;5060895;28;20482;-81
2023/03/30 03:41:21;;;;;;;12.00;4.00;;;11.50;99.90;;;;;;5094681;28;20282;-81
2023/03/30 03:43:46;;;;;;;9.17;4.33;;;11.50;99.90;;;;;;5095454;28;20044;-81
2023/03/30 03:46:13;;;;;;;16.33;3.97;;;11.50;99.90;;;;;;5095099;28;20498;-81
2023/03/30 03:48:39;;;;;;;11.33;4.20;;;11.50;99.90;;;;;;5077414;28;20506;-80
2023/03/30 03:51:06;;;;;;;11.93;3.60;;;11.50;99.90;;;;;;5094051;28;20360;-81
2023/03/30 03:53:32;;;;;;;14.93;4.47;;;11.50;99.90;;;;;;5077401;28;20313;-81
2023/03/30 03:55:57;;;;;;;11.23;3.53;;;11.50;99.90;;;;;;5094010;28;20683;-81
2023/03/30 03:58:24;;;;;;;12.03;3.83;;;11.50;99.90;;;;;;5094158;28;20380;-80
2023/03/30 04:00:51;;;;;;;16.63;3.37;;;11.50;99.90;;;;;;5094207;28;20050;-81
2023/03/30 04:03:16;;;;;;;13.03;3.73;;;11.50;99.90;;;;;;5093860;28;20678;-81
2023/03/30 04:05:42;;;;;;;12.17;3.20;;;11.50;99.90;;;;;;5093772;28;20378;-81
2023/03/30 04:08:09;;;;;;;12.40;3.80;;;11.50;99.90;;;;;;5076860;28;20098;-81
2023/03/30 04:10:39;;;;;;;12.47;3.07;;;11.50;99.90;;;;;;5095011;28;20051;-80
2023/03/30 04:13:05;;;;;;;10.60;3.40;;;11.50;99.90;;;;;;5093514;28;20302;-81
2023/03/30 04:15:31;;;;;;;12.17;2.93;;;11.50;99.90;;;;;;5076944;28;20351;-80
2023/03/30 04:17:57;;;;;;;13.57;3.03;;;11.50;99.90;;;;;;5059813;28;20056;-81
2023/03/30 04:20:25;;;;;;;16.03;3.43;;;11.50;99.90;;;;;;5094111;28;20059;-81
2023/03/30 04:22:52;;;;;;;10.70;3.10;;;11.50;99.90;;;;;;5093731;28;20087;-80
2023/03/30 04:25:20;;;;;;;13.20;3.33;;;11.50;99.90;;;;;;5093392;28;20313;-80
2023/03/30 04:27:50;;;;;;;10.17;2.93;;;11.50;99.90;;;;;;5076874;28;20305;-80
2023/03/30 04:30:17;;;;;;;9.27;3.10;;;11.50;99.90;;;;;;5093356;28;20286;-81
2023/03/30 04:32:45;;;;;;;9.23;2.67;;;11.50;99.90;;;;;;5093657;28;20341;-81
2023/03/30 04:35:13;;;;;;;14.33;3.40;;;11.50;99.90;;;;;;5093228;28;20375;-81
2023/03/30 04:37:41;;;;;;;12.70;3.00;;;11.50;99.90;;;;;;5093524;28;20282;-80
2023/03/30 04:40:08;;;;;;;16.53;3.20;;;11.60;99.90;;;;;;5060125;28;20298;-81
2023/03/30 04:42:36;;;;;;;14.47;3.07;;;11.60;99.90;;;;;;5093451;28;20282;-80
2023/03/30 04:45:07;;;;;;;8.53;2.83;;;11.60;99.90;;;;;;5093014;28;20373;-81
2023/03/30 04:47:33;;;;;;;11.27;3.07;;;11.60;99.90;;;;;;5093524;28;20370;-81
2023/03/30 04:50:00;;;;;;;12.57;3.33;;;11.60;99.90;;;;;;5093182;28;20347;-80
2023/03/30 04:52:26;;;;;;;15.07;3.07;;;11.70;99.90;;;;;;5092672;28;20294;-81
2023/03/30 04:54:52;;;;;;;12.83;4.00;;;11.60;99.90;;;;;;5076225;28;20322;-80
2023/03/30 04:57:17;;;;;;;13.97;3.37;;;11.60;99.90;;;;;;5092687;28;20345;-80
2023/03/30 04:59:44;;;;;;;12.23;2.97;;;11.70;99.90;;;;;;5075803;28;20047;-80
2023/03/30 05:02:11;;;;;;;12.83;3.50;;;11.70;99.90;;;;;;5092734;28;20051;-80
2023/03/30 05:04:38;;;;;;;14.40;3.10;;;11.70;99.90;;;;;;5076081;28;20278;-81
2023/03/30 05:07:05;;;;;;;10.30;3.50;;;11.70;99.90;;;;;;5092290;28;20290;-81
2023/03/30 05:09:31;;;;;;;19.80;3.63;;;11.80;99.90;;;;;;5075725;28;20786;-80
2023/03/30 05:11:57;;;;;;;13.20;3.30;;;11.80;99.90;;;;;;5092956;28;20274;-80
2023/03/30 05:14:23;;;;;;;12.23;2.77;;;11.80;99.90;;;;;;5092149;28;20779;-82
2023/03/30 05:16:48;;;;;;;15.70;3.57;;;11.70;99.90;;;;;;5092917;28;20047;-80
2023/03/30 05:19:14;;;;;;;15.37;3.50;;;11.80;99.90;;;;;;5075252;28;20396;-80
2023/03/30 05:21:40;;;;;;;13.53;3.37;;;11.80;99.90;;;;;;5075408;28;20484;-80
2023/03/30 05:24:06;;;;;;;14.27;3.77;;;11.80;99.90;;;;;;5092115;28;20059;-81
2023/03/30 05:26:32;;;;;;;18.50;3.90;;;11.80;99.90;;;;;;5092494;28;20048;-80
2023/03/30 05:28:58;;;;;;;16.73;3.60;;;11.80;99.90;;;;;;5075827;28;20297;-80
2023/03/30 05:31:24;;;;;;;12.57;2.80;;;11.80;99.90;;;;;;5075476;28;20047;-80
2023/03/30 05:33:51;;;;;;;13.40;3.47;;;11.80;99.90;;;;;;5092238;28;20823;-80
2023/03/30 05:36:17;;;;;;;13.90;3.37;;;11.80;99.90;;;;;;5092169;28;20131;-81
2023/03/30 05:38:43;;;;;;;13.03;3.40;;;11.80;99.90;;;;;;5092391;28;20286;-80
2023/03/30 05:41:10;;;;;;;12.47;3.17;;;11.80;99.90;;;;;;5092092;28;20286;-80
2023/03/30 05:43:35;;;;;;;10.33;2.87;;;11.80;99.90;;;;;;5092012;28;20044;-80
2023/03/30 05:46:02;;;;;;;9.80;3.37;;;11.80;99.90;;;;;;5075507;28;20294;-81
2023/03/30 05:48:29;;;;;;;16.67;3.63;;;11.80;99.90;;;;;;5075145;28;20056;-80
2023/03/30 05:50:56;;;;;;;15.17;3.70;;;11.80;99.90;;;;;;5092232;28;20762;-81
2023/03/30 05:53:21;;;;;;;15.07;3.70;;;11.70;99.90;;;;;;5091709;28;20338;-81
2023/03/30 05:55:48;;;;;;;10.40;2.83;;;11.70;99.90;;;;;;5092048;28;20366;-80
2023/03/30 05:58:15;;;;;;;14.87;4.07;;;11.80;99.90;;;;;;5091887;28;20181;-80
2023/03/30 06:00:42;;;;;;;13.20;3.53;;;11.80;99.90;;;;;;5092074;28;20298;-80
2023/03/30 06:03:10;;;;;;;15.30;4.47;;;11.80;99.90;;;;;;5092219;28;20297;-80
2023/03/30 06:05:42;;;;;;;11.87;3.73;;;11.80;99.90;;;;;;5078666;28;20770;-80
2023/03/30 06:08:08;;;;;;;14.13;3.80;;;11.80;99.90;;;;;;5063552;28;20424;-80
2023/03/30 06:10:35;;;;;;;10.73;3.30;;;11.80;99.90;;;;;;5079261;28;20754;-81
2023/03/30 06:13:01;;;;;;;10.43;3.50;;;11.80;99.90;;;;;;5096047;28;20308;-81
2023/03/30 06:15:27;;;;;;;10.77;3.37;;;11.90;99.90;;;;;;5079008;28;20368;-80
2023/03/30 06:17:53;;;;;;;10.73;3.73;;;11.90;99.90;;;;;;5079263;28;20056;-80
2023/03/30 06:20:20;;;;;;;14.37;4.03;;;11.90;99.90;;;;;;5095804;28;20757;-81
2023/03/30 06:22:50;;;;;;;13.00;3.40;;;11.90;99.90;;;;;;5096131;28;20407;-81
2023/03/30 06:25:18;;;;;;;11.17;3.43;;;11.90;99.90;;;;;;5095501;28;20762;-81
2023/03/30 06:27:44;;;;;;;15.27;4.20;;;11.90;99.90;;;;;;5095994;28;20321;-81
2023/03/30 06:30:11;;;;;;;14.90;3.40;;;11.90;99.90;;;;;;5062388;28;20348;-80
2023/03/30 06:32:37;;;;;;;11.83;3.47;;;11.90;99.90;;;;;;5095636;28;20048;-81
2023/03/30 06:35:04;;;;;;;18.50;4.60;;;12.00;99.90;;;;;;5095893;28;20377;-81
2023/03/30 06:37:35;;;;;;;13.60;3.80;;;11.90;99.90;;;;;;5078673;28;20703;-81
2023/03/30 06:40:06;;;;;;;16.43;3.70;;;12.00;99.90;;;;;;5078908;28;20404;-81
2023/03/30 06:42:32;;;;;;;12.47;3.57;;;12.00;99.90;;;;;;5078574;28;20355;-82
2023/03/30 06:44:58;;;;;;;18.87;3.53;;;12.00;99.90;;;;;;5062210;28;20294;-81
2023/03/30 06:47:24;;;;;;;16.73;3.60;;;12.00;99.90;;;;;;5095344;28;20282;-82
2023/03/30 06:49:49;;;;;;;16.37;4.17;;;12.00;99.90;;;;;;5078984;28;20052;-82
2023/03/30 06:52:16;;;;;;;14.20;3.73;;;12.00;99.90;;;;;;5095152;28;20100;-83
2023/03/30 06:54:42;;;;;;;12.83;3.60;;;12.10;99.90;;;;;;5094856;28;20087;-85
2023/03/30 06:57:08;;;;;;;17.80;4.07;;;12.10;99.90;;;;;;5095479;28;20278;-80
2023/03/30 06:59:33;;;;;;;22.13;4.63;;;12.10;99.90;;;;;;5095112;28;20838;-81
2023/03/30 07:01:59;;;;;;;22.93;4.67;;;12.10;99.90;;;;;;5096308;28;20040;-80
2023/03/30 07:04:25;;;;;;;14.47;3.63;;;12.10;99.90;;;;;;5095961;28;20048;-81
2023/03/30 07:06:51;;;;;;;18.00;4.00;;;12.10;99.90;;;;;;5095255;28;20770;-83
2023/03/30 07:09:17;;;;;;;19.53;3.80;;;12.10;99.90;;;;;;5095110;28;20110;-83
2023/03/30 07:11:43;;;;;;;23.13;4.87;;;12.10;99.90;;;;;;5096259;28;20055;-82
2023/03/30 07:14:10;;;;;;;21.23;4.60;;;12.10;99.90;;;;;;5094873;28;20396;-81
2023/03/30 07:16:37;;;;;;;23.50;5.03;;;12.10;99.90;;;;;;5095286;28;20413;-83
2023/03/30 07:19:04;;;;;;;20.30;4.93;;;12.00;99.90;;;;;;5094497;28;20346;-82
2023/03/30 07:21:31;;;;;;;22.07;4.80;;;12.00;99.90;;;;;;5094462;28;20318;-81
2023/03/30 07:24:00;;;;;;;27.00;5.20;;;11.90;99.90;;;;;;5095024;28;20377;-83
2023/03/30 07:26:29;;;;;;;24.37;5.70;;;11.90;99.90;;;;;;5061607;28;20843;-82
2023/03/30 07:28:55;;;;;;;21.67;4.93;;;11.90;99.90;;;;;;5095760;28;20274;-83
2023/03/30 07:31:23;;;;;;;19.53;4.37;;;11.90;99.90;;;;;;5077697;28;20289;-84
2023/03/30 07:33:49;;;;;;;21.20;4.73;;;11.90;99.90;;;;;;5095876;28;20692;-83
2023/03/30 07:36:16;;;;;;;23.50;5.10;;;11.90;99.90;;;;;;5095871;28;20317;-83
2023/03/30 07:38:41;;;;;;;19.87;4.87;;;11.80;99.90;;;;;;5095338;28;20373;-82
2023/03/30 07:41:09;;;;;;;20.13;4.90;;;11.80;99.90;;;;;;5095574;28;20370;-83
2023/03/30 07:43:35;;;;;;;21.47;4.73;;;11.70;99.90;;;;;;5094388;28;20498;-81
2023/03/30 07:46:01;;;;;;;22.87;5.23;;;11.70;99.90;;;;;;5077774;28;20286;-81
2023/03/30 07:48:28;;;;;;;23.33;4.80;;;11.80;99.90;;;;;;5094459;28;20301;-82
2023/03/30 07:51:05;;;;;;;21.93;4.63;;;11.80;99.90;;;;;;5095372;28;20048;-83
2023/03/30 07:53:32;;;;;;;19.93;4.80;;;11.70;99.90;;;;;;5077228;28;20325;-84
2023/03/30 07:55:58;;;;;;;24.23;5.83;;;11.70;99.90;;;;;;5095299;28;20290;-83
2023/03/30 07:58:24;;;;;;;25.03;4.93;;;11.70;99.90;;;;;;5094024;28;20289;-84
2023/03/30 08:00:49;;;;;;;27.60;5.10;;;11.70;99.90;;;;;;5094924;28;20043;-84
2023/03/30 08:03:15;;;;;;;29.03;4.57;;;11.70;99.90;;;;;;5094087;28;20079;-83
2023/03/30 08:05:41;;;;;;;24.20;5.03;;;11.60;99.90;;;;;;5093838;28;20177;-83
2023/03/30 08:08:07;;;;;;;28.70;5.37;;;11.70;99.90;;;;;;5077357;28;20130;-84
2023/03/30 08:10:33;;;;;;;26.80;5.87;;;11.70;99.90;;;;;;5076885;28;20286;-82
2023/03/30 08:13:00;;;;;;;24.80;5.97;;;11.70;99.90;;;;;;5094906;28;20048;-84
2023/03/30 08:15:26;;;;;;;27.37;6.20;;;11.60;99.90;;;;;;5094613;28;20365;-85
2023/03/30 08:17:52;;;;;;;24.67;5.80;;;11.70;99.90;;;;;;5093206;28;20293;-81
2023/03/30 08:20:18;;;;;;;32.23;6.33;;;11.60;99.90;;;;;;5093425;28;20286;-78
2023/03/30 08:22:44;;;;;;;31.27;6.47;;;11.60;99.90;;;;;;5094347;28;20343;-79
2023/03/30 08:25:10;;;;;;;27.07;6.10;;;11.60;99.90;;;;;;5076974;28;20044;-79
2023/03/30 08:27:36;;;;;;;27.07;5.70;;;11.60;99.90;;;;;;5093425;28;20289;-78
2023/03/30 08:30:03;;;;;;;28.30;5.97;;;11.60;99.90;;;;;;5093541;28;20293;-79
2023/03/30 08:32:28;;;;;;;33.20;6.00;;;11.60;99.90;;;;;;5093994;28;20058;-78
2023/03/30 08:34:54;;;;;;;34.67;7.20;;;11.70;99.90;;;;;;5093164;28;20356;-78
2023/03/30 08:37:20;;;;;;;28.80;6.13;;;11.70;99.90;;;;;;5093343;28;20123;-79
2023/03/30 08:39:45;;;;;;;29.33;5.43;;;11.80;99.90;;;;;;5094056;28;20128;-82
2023/03/30 08:42:28;;;;;;;32.13;6.27;;;11.90;99.90;;;;;;5093913;28;20048;-77
2023/03/30 08:44:56;;;;;;;34.70;6.80;;;11.90;99.90;;;;;;5094237;28;20074;-77
2023/03/30 08:47:38;;;;;;;28.17;6.70;;;12.00;99.90;;;;;;5094243;28;20676;-77
2023/03/30 08:50:12;;;;;;;31.87;6.47;;;12.10;99.90;;;;;;5076593;28;20368;-77
2023/03/30 08:52:40;;;;;;;29.60;5.97;;;12.30;99.90;;;;;;5093872;28;20357;-78
2023/03/30 08:55:20;;;;;;;28.77;5.73;;;12.50;99.90;;;;;;5092899;28;20797;-77
2023/03/30 08:58:15;;;;;;;29.47;6.60;;;12.60;99.90;;;;;;5093837;28;20282;-77
2023/03/30 09:00:55;;;;;;;24.10;5.28;;;12.70;99.90;;;;;;5092782;28;20438;-77
2023/03/30 09:03:30;;;;;;;28.93;6.13;;;12.80;99.90;;;;;;5092758;28;20066;-77
2023/03/30 09:06:07;;;;;;;27.23;5.22;;;13.00;99.90;;;;;;5075656;28;20279;-81
2023/03/30 09:08:33;;;;;;;25.50;5.70;;;13.00;99.90;;;;;;5093407;28;20087;-78
2023/03/30 09:11:01;;;;;;;27.30;5.73;;;13.10;99.90;;;;;;5093757;28;20312;-76
2023/03/30 09:13:38;;;;;;;31.47;6.40;;;13.20;99.90;;;;;;5075936;28;20297;-78
2023/03/30 09:16:24;;;;;;;28.77;6.47;;;13.20;99.90;;;;;;5092626;28;20302;-78
2023/03/30 09:18:55;;;;;;;29.97;5.97;;;13.10;99.90;;;;;;5093599;28;20344;-78
2023/03/30 09:21:26;;;;;;;30.10;5.87;;;13.20;99.90;;;;;;5093738;28;20288;-81
2023/03/30 09:23:55;;;;;;;24.73;6.20;;;13.20;99.90;;;;;;5092521;28;20290;-77
2023/03/30 09:26:51;;;;;;;24.77;5.83;;;13.10;99.90;;;;;;5093665;28;20321;-77
2023/03/30 09:29:42;;;;;;;28.30;7.20;;;13.10;99.90;;;;;;5093717;28;20278;-77
2023/03/30 09:32:16;;;;;;;29.03;6.23;;;13.10;99.90;;;;;;5093752;28;20282;-77
2023/03/30 09:34:49;;;;;;;24.30;5.27;;;13.00;99.90;;;;;;5093235;28;20286;-77
2023/03/30 09:37:21;;;;;;;21.87;5.43;;;13.10;99.90;;;;;;5093497;28;20301;-79
2023/03/30 09:39:48;;;;;;;25.83;5.43;;;12.90;99.90;;;;;;5093089;28;20627;-78
2023/03/30 09:42:23;;;;;;;24.13;5.87;;;12.90;99.90;;;;;;5093305;28;20281;-77
2023/03/30 09:44:55;;;;;;;23.92;5.40;;;12.90;99.90;;;;;;5093065;28;20280;-77
2023/03/30 09:47:31;;;;;;;20.40;4.73;;;12.80;99.90;;;;;;5093274;28;20098;-82
2023/03/30 09:50:07;;;;;;;23.97;5.50;;;12.80;99.90;;;;;;5092138;28;20294;-83
2023/03/30 09:52:36;;;;;;;24.83;5.17;;;12.80;99.90;;;;;;5092471;28;20813;-84
2023/03/30 09:55:30;;;;;;;22.27;5.80;;;12.80;99.90;;;;;;5092413;28;20274;-83
2023/03/30 09:58:16;;;;;;;21.47;4.37;;;12.90;99.90;;;;;;5089137;28;20335;-84
2023/03/30 10:00:42;;;;;;;26.63;5.00;;;12.80;99.90;;;;;;5091180;28;20355;-84
2023/03/30 10:03:19;;;;;;;23.40;4.60;;;12.80;99.90;;;;;;5091803;28;20831;-84
2023/03/30 10:05:59;;;;;;;18.73;4.07;;;12.90;99.90;;;;;;5092604;28;20290;-84
2023/03/30 10:08:24;;;;;;;21.90;5.73;;;12.80;99.90;;;;;;5099353;28;20340;-84
2023/03/30 10:10:55;;;;;;;21.07;5.13;;;12.80;99.90;;;;;;5092435;28;20274;-83
2023/03/30 10:13:34;;;;;;;25.43;5.53;;;12.80;99.90;;;;;;5091445;28;20044;-75
2023/03/30 10:16:07;;;;;;;19.37;4.73;;;12.80;99.90;;;;;;5090873;28;20289;-83
2023/03/30 10:18:44;;;;;;;30.47;6.90;;;12.70;99.90;;;;;;5088805;28;20274;-85
2023/03/30 10:21:13;;;;;;;24.20;4.90;;;12.70;99.90;;;;;;5092784;28;20282;-85
2023/03/30 10:23:42;;;;;;;34.33;6.97;;;12.80;99.90;;;;;;5091604;28;20575;-83
2023/03/30 10:26:18;;;;;;;26.43;6.23;;;12.80;99.90;;;;;;5098659;28;20286;-83
2023/03/30 10:28:52;;;;;;;26.40;6.30;;;12.90;99.90;;;;;;5100773;28;20283;-81
2023/03/30 10:31:18;;;;;;;25.47;4.97;;;12.90;99.90;;;;;;5091296;28;20638;-82
2023/03/30 10:33:44;;;;;;;27.03;6.03;;;12.90;99.90;;;;;;5088615;28;20812;-85
2023/03/30 10:36:13;;;;;;;27.23;6.63;;;12.90;99.90;;;;;;5056262;28;20306;-82
2023/03/30 10:38:40;;;;;;;32.33;6.07;;;12.90;99.90;;;;;;5091254;28;20762;-77
2023/03/30 10:41:14;;;;;;;25.07;6.30;;;13.00;99.90;;;;;;5092094;28;20282;-83
2023/03/30 10:43:41;;;;;;;27.47;5.13;;;13.00;99.90;;;;;;5092457;28;20302;-83
2023/03/30 10:46:12;;;;;;;32.30;6.07;;;13.10;99.90;;;;;;5091250;28;20290;-81
2023/03/30 10:48:54;;;;;;;29.33;6.13;;;13.20;99.90;;;;;;5091649;28;20825;-83
2023/03/30 10:51:38;;;;;;;20.63;6.80;;;13.30;99.90;;;;;;5075908;28;20351;-82
2023/03/30 10:54:16;;;;;;;28.57;6.57;;;13.40;99.90;;;;;;5094950;28;20623;-81
2023/03/30 10:56:58;;;;;;;27.73;5.50;;;13.40;99.90;;;;;;5095472;28;20304;-80
2023/03/30 10:59:37;;;;;;;27.93;5.67;;;13.50;99.90;;;;;;5096440;28;20777;-83
2023/03/30 11:02:26;;;;;;;25.53;5.97;;;13.60;99.90;;;;;;5096137;28;20282;-81
2023/03/30 11:05:08;;;;;;;22.13;5.57;;;13.70;99.90;;;;;;5095483;28;20782;-79
2023/03/30 11:08:06;;;;;;;27.40;6.63;;;13.80;99.90;;;;;;5092951;28;20278;-79
2023/03/30 11:10:40;;;;;;;25.97;5.87;;;13.90;99.90;;;;;;5093799;28;20274;-77
2023/03/30 11:13:12;;;;;;;29.20;6.20;;;13.90;99.90;;;;;;5095366;28;20792;-77
2023/03/30 11:15:57;;;;;;;26.30;5.40;;;14.00;99.90;;;;;;5095366;28;20305;-77
2023/03/30 11:18:47;;;;;;;27.23;6.57;;;14.10;99.90;;;;;;5096355;28;20326;-81
2023/03/30 11:21:44;;;;;;;29.97;6.07;;;14.20;99.90;;;;;;5095446;28;20044;-81
2023/03/30 11:24:16;;;;;;;25.17;5.63;;;14.30;99.90;;;;;;5094526;28;20290;-80
2023/03/30 11:27:07;;;;;;;28.80;5.97;;;14.40;99.90;;;;;;5094317;28;20282;-80
2023/03/30 11:29:51;;;;;;;23.43;5.57;;;14.40;99.90;;;;;;5094139;28;20275;-80
2023/03/30 11:32:30;;;;;;;23.40;5.50;;;14.50;99.90;;;;;;5093021;28;20335;-77
2023/03/30 11:35:27;;;;;;;29.67;6.37;;;14.60;99.90;;;;;;5092442;28;20298;-76
2023/03/30 11:37:57;;;;;;;23.00;5.67;;;14.60;99.90;;;;;;5093298;28;20343;-83
2023/03/30 11:40:34;;;;;;;23.10;4.50;;;14.70;99.90;;;;;;5095081;28;20833;-80
2023/03/30 11:43:00;;;;;;;27.40;5.87;;;14.70;99.90;;;;;;5094921;28;20302;-84
2023/03/30 11:45:44;;;;;;;21.80;5.13;;;14.80;99.90;;;;;;5094110;28;20618;-82
2023/03/30 11:48:49;;;;;;;26.97;6.37;;;14.80;99.90;;;;;;5092985;28;20287;-83
2023/03/30 11:51:39;;;;;;;25.57;6.90;;;14.90;99.90;;;;;;5092497;28;20301;-78
2023/03/30 11:54:17;;;;;;;23.80;5.53;;;14.80;99.90;;;;;;5091022;28;20047;-85
2023/03/30 11:56:48;;;;;;;23.90;5.50;;;14.80;99.90;;;;;;5094938;28;20127;-83
2023/03/30 11:59:36;;;;;;;23.27;5.43;;;14.80;99.90;;;;;;5094639;28;20044;-83
2023/03/30 12:02:44;;;;;;;24.33;6.17;;;14.80;99.90;;;;;;5083882;28;20848;-83
2023/03/30 12:05:38;;;;;;;25.10;5.97;;;14.70;99.90;;;;;;5092753;28;20286;-84
2023/03/30 12:08:33;;;;;;;26.47;6.20;;;14.70;99.90;;;;;;5090820;28;20337;-82
2023/03/30 12:11:10;;;;;;;24.63;6.10;;;14.70;99.90;;;;;;5094304;28;20044;-83
2023/03/30 12:13:36;;;;;;;26.47;5.80;;;14.60;99.90;;;;;;5093360;28;20314;-84
2023/03/30 12:16:38;;;;;;;26.93;5.17;;;14.60;99.90;;;;;;5094273;28;20285;-84
2023/03/30 12:19:17;;;;;;;26.37;6.53;;;14.50;99.90;;;;;;5081812;28;20128;-84
2023/03/30 12:22:09;;;;;;;26.83;6.40;;;14.50;99.90;;;;;;5091594;28;20048;-81
2023/03/30 12:24:50;;;;;;;28.07;7.30;;;14.40;99.90;;;;;;5093526;28;20044;-84
2023/03/30 12:27:16;;;;;;;24.53;6.07;;;14.40;99.90;;;;;;5092017;28;20282;-83
2023/03/30 12:29:47;;;;;;;29.23;6.73;;;14.40;99.90;;;;;;5094223;28;20282;-84
2023/03/30 12:32:25;;;;;;;26.67;5.60;;;14.40;99.90;;;;;;5094011;28;20044;-83
2023/03/30 12:34:51;;;;;;;28.97;6.37;;;14.40;99.90;;;;;;5092777;28;20306;-85
2023/03/30 12:37:34;;;;;;;28.17;6.53;;;14.40;99.90;;;;;;5093836;28;20366;-83
2023/03/30 12:40:06;;;;;;;29.27;6.37;;;14.40;99.90;;;;;;5093820;28;20036;-83
2023/03/30 12:42:36;;;;;;;27.30;5.80;;;14.40;99.90;;;;;;5076925;28;20297;-84
2023/03/30 12:45:23;;;;;;;30.70;6.50;;;14.40;99.90;;;;;;5093814;28;20854;-86
2023/03/30 12:48:07;;;;;;;30.97;6.17;;;14.50;99.90;;;;;;5094362;28;20279;-85
2023/03/30 12:51:07;;;;;;;30.23;6.17;;;14.50;99.90;;;;;;5093295;28;20680;-85
2023/03/30 12:53:54;;;;;;;32.37;6.30;;;14.40;99.90;;;;;;5094132;28;20132;-82
2023/03/30 12:56:45;;;;;;;28.50;5.47;;;14.40;99.90;;;;;;5093189;28;20425;-85
2023/03/30 12:59:30;;;;;;;27.70;6.43;;;14.40;99.90;;;;;;5092660;28;20047;-84
2023/03/30 13:02:11;;;;;;;;;;;14.40;99.90;;;;;;5091515;28;20749;-80
2023/03/30 13:04:38;;;;;;;30.40;7.90;;;14.50;99.90;;;;;;5091998;28;19962;-83